Impacts TAF Board INFO
FOR SITUATIONAL AWARENESS. NOT TO BE USED FOR FLIGHT PLANNING PURPOSES.
IDs:

KSAN - San Diego Intl Arpt, CA, US

Issued at 0520 UTC 18 Oct 2017
Updated at 0735 UTC 18 Oct 2017
Potential Impact None Slight Moderate High
Time0651Z 18/08Z 18/09Z 18/10Z 18/11Z 18/12Z 18/13Z 18/14Z 18/15Z 18/16Z 18/17Z 18/18Z 18/19Z 18/20Z>>
Type OBS PRVL PRVL PRVL PRVL PRVL PRVL PRVL PRVL PRVL PRVL PRVL PRVL PRVL
VIS 10 >6 >6 >6 >6 >6 >6 >6 >6 >6 >6 >6 >6 >6
CIG 230 -- -- -- -- 200 200 200 200 200 200 200 200 200
Cover BKN SCT SCT SCT SCT BKN BKN BKN BKN BKN BKN BKN BKN BKN
FltCat VFR VFR VFR VFR VFR VFR VFR VFR VFR VFR VFR VFR VFR VFR
WX -- -- -- -- -- -- -- -- -- -- -- -- -- --
WDir VRB VRB VRB VRB VRB 170 170 170 170 170 170 170 270 270
WSpd 0 0 0 0 0 4 4 4 4 4 4 4 8 8
WGst -- -- -- -- -- -- -- -- -- -- -- -- -- --

Raw TAF
KSAN 180520Z 1806/1912 00000KT P6SM FEW003 SCT250
  FM181200 17004KT P6SM SCT003 BKN200
  FM181900 27008KT P6SM BKN200
  FM190200 25004KT P6SM SCT006 BKN200
  FM190600 19005KT P6SM BKN010


Raw METAR
KSAN 180651Z 00000KT 10SM FEW007 BKN230 22/17 A2995 RMK AO2 SLP140 T02220167 $
KSAN 180551Z 00000KT 10SM FEW007 SCT250 23/17 A2995 RMK AO2 SLP141 T02280172 10256 20228 50000 $
KSAN 180451Z 00000KT 10SM FEW007 SCT250 23/14 A2996 RMK AO2 SLP145 T02280139 $

METAR Board
Radar Display
Forecast Discussion

FOR SITUATIONAL AWARENESS. NOT TO BE USED FOR FLIGHT PLANNING PURPOSES.